Time;durP1;ratioP1;P1;durP2;ratioP2;P2;SDS_P1;SDS_P2;PMS_P1;PMS_P2;Temp;Humidity;BMP_temperature;BMP_pressure;BME280_temperature;BME280_humidity;BME280_pressure;Samples;Min_cycle;Max_cycle;Signal;HPM_P1;HPM_P2
2022/08/02 00:01:39;;;;;;;10.23;5.47;;;;;;;15.49;65.89;101539.19;5058565;28;20231;-68
2022/08/02 00:04:04;;;;;;;8.90;5.63;;;;;;;15.59;66.18;101546.25;5058646;28;20217;-66
2022/08/02 00:06:30;;;;;;;8.63;4.37;;;;;;;15.44;65.61;101539.22;5059765;28;20444;-65
2022/08/02 00:08:55;;;;;;;9.13;5.10;;;;;;;15.52;66.19;101538.34;5059313;28;20494;-66
2022/08/02 00:11:20;;;;;;;6.07;4.80;;;;;;;15.52;66.24;101536.59;5060888;28;20174;-67
2022/08/02 00:13:46;;;;;;;7.57;4.67;;;;;;;15.61;65.70;101541.88;5060084;28;20227;-67
2022/08/02 00:16:12;;;;;;;7.30;5.37;;;;;;;15.38;66.11;101543.56;5040782;28;20217;-67
2022/08/02 00:18:37;;;;;;;10.90;5.30;;;;;;;15.59;65.95;101541.00;5056714;28;20173;-66
2022/08/02 00:21:03;;;;;;;13.73;5.27;;;;;;;15.60;65.99;101536.59;5045847;28;20757;-65
2022/08/02 00:23:28;;;;;;;9.50;5.30;;;;;;;15.29;66.49;101536.56;5040465;28;20178;-66
2022/08/02 00:25:53;;;;;;;8.57;5.00;;;;;;;15.46;66.45;101529.56;5040283;28;20189;-65
2022/08/02 00:28:19;;;;;;;6.80;5.00;;;;;;;15.65;66.10;101532.22;5041895;28;20178;-66
2022/08/02 00:30:44;;;;;;;11.70;5.23;;;;;;;15.39;66.64;101519.94;5054737;28;20284;-66
2022/08/02 00:33:10;;;;;;;8.70;4.30;;;;;;;15.39;66.65;101516.44;5054553;28;20206;-66
2022/08/02 00:35:35;;;;;;;6.97;5.03;;;;;;;15.48;66.65;101519.09;5040742;28;20185;-66
2022/08/02 00:38:02;;;;;;;6.60;4.70;;;;;;;15.45;66.45;101516.44;5056270;28;20592;-66
2022/08/02 00:40:28;;;;;;;7.47;4.30;;;;;;;15.29;66.91;101524.28;5050000;28;20196;-66
2022/08/02 00:43:08;;;;;;;6.70;5.03;;;;;;;15.29;67.15;101518.16;5040668;28;20429;-66
2022/08/02 00:45:36;;;;;;;6.07;4.60;;;;;;;15.20;67.53;101528.66;5040052;28;20201;-66
2022/08/02 00:48:02;;;;;;;8.40;4.93;;;;;;;15.23;67.62;101531.28;5039483;28;20417;-66
2022/08/02 00:50:28;;;;;;;6.03;4.80;;;;;;;15.60;66.81;101533.97;5049188;28;20519;-66
2022/08/02 00:52:53;;;;;;;13.47;5.03;;;;;;;15.55;66.24;101536.59;5059772;28;20554;-64
2022/08/02 00:55:19;;;;;;;10.63;4.87;;;;;;;15.51;66.89;101539.25;5060070;28;20505;-64
2022/08/02 00:57:45;;;;;;;10.50;4.80;;;;;;;15.32;67.20;101545.31;5059784;28;20201;-65
2022/08/02 01:00:11;;;;;;;9.13;5.30;;;;;;;15.61;66.47;101541.88;5053253;28;20456;-65
2022/08/02 01:02:36;;;;;;;6.80;4.63;;;;;;;15.45;67.03;101556.75;5041224;28;20181;-64
2022/08/02 01:05:02;;;;;;;6.47;5.03;;;;;;;15.41;67.10;101556.72;5058634;28;20467;-65
2022/08/02 01:07:27;;;;;;;10.33;4.93;;;;;;;15.36;67.06;101553.19;5059000;28;20547;-66
2022/08/02 01:09:52;;;;;;;7.27;4.70;;;;;;;15.61;66.83;101560.28;5060135;28;20187;-66
2022/08/02 01:12:18;;;;;;;10.23;4.53;;;;;;;15.43;66.70;101563.72;5059679;28;20201;-67
2022/08/02 01:14:47;;;;;;;8.50;5.77;;;;;;;15.38;67.46;101557.56;5041236;28;20189;-66
2022/08/02 01:17:21;;;;;;;7.70;4.90;;;;;;;15.23;68.21;101560.16;5040099;28;20170;-66
2022/08/02 01:20:00;;;;;;;14.90;5.97;;;;;;;15.20;69.08;101560.16;5040767;28;20666;-66
2022/08/02 01:22:44;;;;;;;6.33;5.10;;;;;;;15.22;68.95;101563.66;5038820;28;20501;-67
2022/08/02 01:25:15;;;;;;;8.03;5.70;;;;;;;15.16;69.40;101560.13;5056638;28;20442;-68
2022/08/02 01:27:56;;;;;;;8.40;5.57;;;;;;;15.23;69.43;101561.03;5058149;28;20777;-66
2022/08/02 01:30:21;;;;;;;11.33;4.70;;;;;;;15.26;68.98;101557.53;5039877;28;20735;-67
2022/08/02 01:32:50;;;;;;;12.20;5.70;;;;;;;15.21;69.81;101557.53;5040630;28;20391;-68
2022/08/02 01:35:21;;;;;;;9.90;5.50;;;;;;;15.02;70.39;101559.22;5043244;28;20178;-68
2022/08/02 01:37:53;;;;;;;12.70;5.30;;;;;;;14.97;71.00;101556.56;5059129;28;20477;-67
2022/08/02 01:40:28;;;;;;;10.33;5.13;;;;;;;14.80;71.66;101559.13;5051419;28;20424;-67
2022/08/02 01:42:56;;;;;;;6.90;5.03;;;;;;;14.96;71.32;101551.31;5038132;28;20425;-67
2022/08/02 01:45:24;;;;;;;7.53;5.23;;;;;;;15.13;70.82;101560.13;5054177;28;20476;-68
2022/08/02 01:47:50;;;;;;;8.60;5.50;;;;;;;14.87;71.77;101561.75;5058659;28;20658;-67
2022/08/02 01:50:18;;;;;;;7.83;5.57;;;;;;;15.04;71.33;101557.47;5056217;28;20421;-67
2022/08/02 01:52:48;;;;;;;11.80;5.80;;;;;;;15.10;71.07;101554.88;5040501;28;20408;-66
2022/08/02 01:55:37;;;;;;;6.87;5.30;;;;;;;14.86;71.19;101562.66;5045361;28;20681;-67
2022/08/02 01:58:04;;;;;;;8.83;4.90;;;;;;;15.05;70.82;101561.84;5058669;28;20420;-67
2022/08/02 02:00:34;;;;;;;11.97;5.30;;;;;;;15.05;70.88;101553.09;5057415;28;20684;-67
2022/08/02 02:03:01;;;;;;;10.13;5.27;;;;;;;15.08;70.68;101561.00;5053663;28;20482;-68
2022/08/02 02:05:28;;;;;;;11.70;5.63;;;;;;;14.84;71.41;101567.84;5042344;28;20475;-67
2022/08/02 02:07:58;;;;;;;9.53;5.60;;;;;;;14.93;71.13;101574.94;5056873;28;20402;-68
2022/08/02 02:10:26;;;;;;;9.23;5.53;;;;;;;14.57;72.13;101573.81;5057597;28;20709;-68
2022/08/02 02:12:52;;;;;;;8.03;5.23;;;;;;;14.53;72.46;101572.03;5056112;28;20399;-67
2022/08/02 02:15:18;;;;;;;8.07;5.87;;;;;;;14.72;72.16;101573.03;5047268;28;20650;-66
2022/08/02 02:17:45;;;;;;;9.20;5.37;;;;;;;14.68;72.65;101568.66;5057639;28;20417;-67
2022/08/02 02:20:14;;;;;;;7.80;5.20;;;;;;;14.46;72.38;101576.34;5046271;28;20550;-67
2022/08/02 02:22:39;;;;;;;7.27;5.43;;;;;;;14.59;72.47;101572.06;5037783;28;20700;-67
2022/08/02 02:25:06;;;;;;;7.13;5.00;;;;;;;14.68;72.13;101564.31;5042381;28;20445;-66
2022/08/02 02:27:33;;;;;;;8.60;5.27;;;;;;;14.39;72.83;101554.44;5055291;28;20271;-67
2022/08/02 02:29:58;;;;;;;7.50;5.23;;;;;;;14.63;72.23;101553.75;5057430;28;20442;-66
2022/08/02 02:32:24;;;;;;;13.30;5.30;;;;;;;14.58;72.23;101547.56;5055690;28;20431;-68
2022/08/02 02:34:50;;;;;;;8.80;4.97;;;;;;;14.24;72.79;101549.97;5041197;28;20182;-68
2022/08/02 02:37:20;;;;;;;9.10;5.20;;;;;;;14.44;72.88;101541.38;5038324;28;20459;-67
2022/08/02 02:39:47;;;;;;;9.53;6.20;;;;;;;14.52;72.74;101541.41;5037288;28;20185;-67
2022/08/02 02:42:15;;;;;;;7.23;5.80;;;;;;;14.55;72.50;101544.06;5037316;28;20475;-68
2022/08/02 02:44:41;;;;;;;7.37;5.50;;;;;;;14.55;72.32;101538.81;5037931;28;20464;-67
2022/08/02 02:47:08;;;;;;;8.60;5.23;;;;;;;14.37;72.91;101537.81;5056997;28;20439;-67
2022/08/02 02:49:34;;;;;;;9.93;5.50;;;;;;;14.42;72.77;101544.00;5057020;28;20414;-67
2022/08/02 02:52:02;;;;;;;7.70;5.53;;;;;;;14.34;73.25;101532.53;5057568;28;20719;-67
2022/08/02 02:54:28;;;;;;;6.30;5.10;;;;;;;14.35;73.01;101534.31;5057296;28;20434;-67
2022/08/02 02:56:54;;;;;;;11.60;6.27;;;;;;;14.41;73.11;101538.69;5040814;28;20445;-67
2022/08/02 02:59:19;;;;;;;7.53;5.53;;;;;;;14.35;73.05;101526.44;5055628;28;20475;-67
2022/08/02 03:01:45;;;;;;;9.43;5.13;;;;;;;14.30;72.86;101533.38;5056807;28;20439;-66
2022/08/02 03:04:11;;;;;;;8.87;5.60;;;;;;;14.34;73.32;101527.28;5044876;28;20225;-66
2022/08/02 03:06:37;;;;;;;7.10;5.97;;;;;;;14.47;72.95;101536.13;5057479;28;20243;-66
2022/08/02 03:09:03;;;;;;;8.33;5.57;;;;;;;14.38;72.76;101534.31;5050455;28;20434;-66
2022/08/02 03:11:29;;;;;;;13.43;6.30;;;;;;;14.49;72.44;101524.78;5046415;28;20181;-67
2022/08/02 03:13:59;;;;;;;10.63;5.90;;;;;;;14.51;72.32;101535.28;5057260;28;20851;-67
2022/08/02 03:16:27;;;;;;;10.63;6.77;;;;;;;14.39;72.77;101536.06;5052143;28;20188;-67
2022/08/02 03:18:54;;;;;;;15.27;5.80;;;;;;;14.48;72.96;101530.03;5057698;28;20433;-67
2022/08/02 03:21:19;;;;;;;7.83;6.00;;;;;;;14.52;72.70;101534.41;5054322;28;20506;-68
2022/08/02 03:23:45;;;;;;;10.87;5.60;;;;;;;14.70;72.20;101528.44;5048220;28;20473;-67
2022/08/02 03:26:11;;;;;;;12.20;6.50;;;;;;;14.58;72.17;101523.94;5056864;28;20192;-66
2022/08/02 03:28:36;;;;;;;8.90;5.97;;;;;;;14.61;72.04;101523.09;5056369;28;20792;-67
2022/08/02 03:31:02;;;;;;;8.93;5.90;;;;;;;14.76;71.68;101519.69;5057742;28;20177;-66
2022/08/02 03:33:28;;;;;;;10.83;6.17;;;;;;;14.72;72.03;101520.56;5049713;28;20198;-67
2022/08/02 03:35:56;;;;;;;8.87;6.20;;;;;;;14.72;72.11;101523.19;5041502;28;20177;-66
2022/08/02 03:38:23;;;;;;;6.87;5.50;;;;;;;14.58;72.16;101525.72;5056971;28;20399;-66
2022/08/02 03:40:48;;;;;;;6.97;6.27;;;;;;;14.12;74.56;101528.91;5045441;28;20432;-70
2022/08/02 03:43:14;;;;;;;8.37;5.80;;;;;;;14.69;73.05;101524.03;5039991;28;20403;-70
2022/08/02 03:45:43;;;;;;;12.57;6.97;;;;;;;14.62;73.10;101522.22;5060673;28;20216;-70
2022/08/02 03:48:09;;;;;;;8.40;7.20;;;;;;;14.89;71.94;101510.16;5038295;28;20543;-67
2022/08/02 03:50:35;;;;;;;13.27;6.70;;;;;;;14.95;71.41;101504.91;5037308;28;20516;-68
2022/08/02 03:53:01;;;;;;;9.60;6.80;;;;;;;14.91;71.15;101501.41;5036783;28;20471;-67
2022/08/02 03:55:26;;;;;;;11.27;6.30;;;;;;;15.17;70.62;101505.88;5045243;28;20266;-69
2022/08/02 03:57:52;;;;;;;10.83;7.00;;;;;;;15.25;69.68;101498.00;5055005;28;20260;-68
2022/08/02 04:00:19;;;;;;;12.90;6.20;;;;;;;15.22;70.06;101509.38;5057361;28;20189;-67
2022/08/02 04:02:45;;;;;;;13.27;6.77;;;;;;;14.98;70.25;101507.56;5055767;28;20612;-68
2022/08/02 04:05:10;;;;;;;13.30;6.50;;;;;;;15.03;70.45;101504.94;5037834;28;20542;-69
2022/08/02 04:07:36;;;;;;;13.20;6.20;;;;;;;15.18;69.81;101519.88;5041459;28;20210;-69
2022/08/02 04:10:01;;;;;;;9.90;6.27;;;;;;;14.85;70.87;101521.50;5040133;28;20217;-68
2022/08/02 04:12:27;;;;;;;10.87;6.30;;;;;;;14.64;72.24;101523.16;5041238;28;20180;-69
2022/08/02 04:14:52;;;;;;;9.13;6.20;;;;;;;14.74;72.20;101518.81;5040854;28;20174;-68
2022/08/02 04:17:18;;;;;;;13.13;6.57;;;;;;;14.91;71.94;101519.78;5044484;28;20182;-68
2022/08/02 04:19:52;;;;;;;10.23;6.57;;;;;;;14.88;71.82;101527.63;5042125;28;20186;-68
2022/08/02 04:22:24;;;;;;;10.30;6.43;;;;;;;14.84;72.04;101525.84;5059853;28;20413;-68
2022/08/02 04:24:54;;;;;;;7.40;6.00;;;;;;;14.93;71.32;101527.66;5059580;28;20446;-69
2022/08/02 04:27:21;;;;;;;11.20;6.57;;;;;;;15.53;70.02;101526.97;5058024;28;20438;-68
2022/08/02 04:29:47;;;;;;;13.47;6.30;;;;;;;15.72;68.59;101528.75;5057712;28;20829;-68
2022/08/02 04:32:14;;;;;;;8.27;6.30;;;;;;;15.35;69.63;101536.56;5047260;28;20421;-68
2022/08/02 04:34:39;;;;;;;11.63;6.20;;;;;;;15.12;71.02;101537.34;5053398;28;20437;-68
2022/08/02 04:37:05;;;;;;;11.90;7.00;;;;;;;15.27;70.39;101544.41;5042572;28;20408;-70
2022/08/02 04:39:30;;;;;;;12.63;7.67;;;;;;;15.41;69.54;101543.56;5041469;28;20213;-69
2022/08/02 04:41:55;;;;;;;13.10;6.30;;;;;;;15.58;69.76;101535.75;5042480;28;20197;-68
2022/08/02 04:44:21;;;;;;;10.83;7.10;;;;;;;16.32;66.56;101526.13;5040095;28;20276;-68
2022/08/02 04:46:46;;;;;;;7.43;6.37;;;;;;;16.03;66.42;101533.16;5040538;28;20182;-68
2022/08/02 04:49:12;;;;;;;8.60;6.30;;;;;;;15.39;68.07;101538.31;5040187;28;20177;-69
2022/08/02 04:51:39;;;;;;;9.10;6.30;;;;;;;15.81;67.54;101536.66;5041483;28;20190;-69
2022/08/02 04:54:06;;;;;;;8.20;6.20;;;;;;;15.58;67.76;101541.84;5045068;28;20295;-67
2022/08/02 04:56:32;;;;;;;7.87;6.07;;;;;;;15.49;68.35;101540.09;5059958;28;20460;-67
2022/08/02 04:58:57;;;;;;;9.23;6.30;;;;;;;15.59;68.42;101537.50;5059970;28;20808;-69
2022/08/02 05:01:22;;;;;;;11.47;6.50;;;;;;;15.70;68.14;101534.88;5046183;28;20182;-68
2022/08/02 05:03:48;;;;;;;11.97;6.97;;;;;;;15.48;68.92;101527.84;5040818;28;20205;-68
2022/08/02 05:06:13;;;;;;;11.67;6.43;;;;;;;17.71;61.61;101524.66;5045259;28;20185;-68
2022/08/02 05:08:39;;;;;;;9.40;6.33;;;;;;;19.48;55.80;101516.59;5039918;28;20196;-68
2022/08/02 05:11:04;;;;;;;9.80;6.20;;;;;;;21.24;51.30;101515.13;5043637;28;20486;-68
2022/08/02 05:13:29;;;;;;;8.17;5.37;;;;;;;21.60;47.44;101504.59;5048056;28;20512;-68
2022/08/02 05:15:55;;;;;;;18.53;5.60;;;;;;;21.57;48.29;101509.09;5059298;28;20265;-68
2022/08/02 05:18:20;;;;;;;8.40;4.87;;;;;;;21.69;47.02;101522.97;5059620;28;20173;-68
2022/08/02 05:20:45;;;;;;;6.13;4.47;;;;;;;21.61;48.07;101511.66;5058884;28;20170;-69
2022/08/02 05:23:11;;;;;;;6.23;4.10;;;;;;;22.28;46.08;101499.34;5059313;28;20173;-69
2022/08/02 05:25:36;;;;;;;8.20;4.17;;;;;;;22.56;45.92;101504.78;5059279;28;20563;-70
2022/08/02 05:28:02;;;;;;;7.60;4.53;;;;;;;23.51;42.86;101501.06;5059839;28;20242;-69
2022/08/02 05:30:27;;;;;;;8.07;4.10;;;;;;;22.66;44.95;101498.31;5059342;28;20189;-69
2022/08/02 05:32:52;;;;;;;9.80;4.87;;;;;;;24.82;40.33;101500.97;5059254;28;20234;-70
2022/08/02 05:35:23;;;;;;;6.67;4.30;;;;;;;24.09;40.96;101507.19;5059423;28;20189;-69
2022/08/02 05:37:50;;;;;;;7.97;4.30;;;;;;;24.71;40.27;101505.88;5059130;28;20553;-70
2022/08/02 05:40:15;;;;;;;7.03;3.70;;;;;;;25.03;39.37;101506.41;5059172;28;20416;-70
2022/08/02 05:42:41;;;;;;;6.93;3.97;;;;;;;25.98;37.87;101508.81;5059468;28;20401;-69
2022/08/02 05:45:07;;;;;;;8.03;3.73;;;;;;;26.06;36.99;101504.06;5058808;28;20209;-69
2022/08/02 05:47:32;;;;;;;10.90;4.90;;;;;;;26.60;35.84;101503.47;5058932;28;20177;-69
2022/08/02 05:49:58;;;;;;;10.90;4.17;;;;;;;26.34;36.66;101497.50;5059189;28;20169;-70
2022/08/02 05:52:25;;;;;;;7.47;4.40;;;;;;;24.30;40.01;101501.09;5058836;28;20201;-70
2022/08/02 05:55:06;;;;;;;10.50;5.30;;;;;;;23.01;43.26;101507.00;5058417;28;20225;-70
2022/08/02 05:57:50;;;;;;;8.13;4.70;;;;;;;25.96;38.49;101497.34;5058634;28;20420;-70
2022/08/02 06:00:16;;;;;;;10.40;5.60;;;;;;;25.41;38.36;101498.75;5058732;28;20766;-70
2022/08/02 06:02:41;;;;;;;11.47;5.10;;;;;;;25.10;39.41;101496.38;5058738;28;20494;-70
2022/08/02 06:05:10;;;;;;;12.00;5.13;;;;;;;24.82;40.22;101500.97;5058417;28;20314;-71
2022/08/02 06:07:36;;;;;;;9.93;4.77;;;;;;;24.87;40.34;101507.00;5059090;28;20169;-71
2022/08/02 06:10:04;;;;;;;8.17;4.40;;;;;;;26.78;36.71;101500.00;5058125;28;20750;-71
2022/08/02 06:12:32;;;;;;;7.87;4.13;;;;;;;24.86;39.03;101510.59;5058706;28;20208;-70
2022/08/02 06:14:58;;;;;;;11.33;4.57;;;;;;;26.17;37.61;101501.78;5058653;28;20495;-71
2022/08/02 06:17:24;;;;;;;9.23;4.20;;;;;;;26.38;36.47;101491.06;5058770;28;20527;-71
2022/08/02 06:19:53;;;;;;;10.10;4.90;;;;;;;25.72;37.12;101501.00;5058376;28;20169;-71
2022/08/02 06:22:19;;;;;;;9.60;3.80;;;;;;;25.62;37.57;101496.97;5058293;28;20396;-71
2022/08/02 06:24:45;;;;;;;5.53;3.60;;;;;;;27.38;34.31;101493.59;5058174;28;20486;-71
2022/08/02 06:27:13;;;;;;;5.37;4.00;;;;;;;26.65;35.23;101510.34;5057470;28;20174;-70
2022/08/02 06:29:40;;;;;;;9.10;4.07;;;;;;;26.84;34.77;101504.19;5058408;28;20252;-70
2022/08/02 06:32:06;;;;;;;6.20;3.33;;;;;;;27.80;33.38;101508.47;5057438;28;20702;-68
2022/08/02 06:34:35;;;;;;;9.30;3.80;;;;;;;26.87;34.58;101510.25;5057991;28;20424;-69
2022/08/02 06:37:25;;;;;;;7.30;3.97;;;;;;;26.84;35.07;101502.34;5058567;28;20707;-69
2022/08/02 06:40:03;;;;;;;9.30;3.87;;;;;;;27.22;34.06;101488.97;5056780;28;20436;-69
2022/08/02 06:42:46;;;;;;;4.40;3.13;;;;;;;27.26;33.58;101497.72;5057997;28;20434;-69
2022/08/02 06:45:11;;;;;;;9.47;4.37;;;;;;;26.98;34.17;101503.53;5057068;28;20803;-69
2022/08/02 06:47:37;;;;;;;8.87;4.00;;;;;;;27.88;33.35;101498.22;5057896;28;20448;-70
2022/08/02 06:50:03;;;;;;;7.43;3.80;;;;;;;28.93;31.05;101491.84;5057815;28;20174;-67
2022/08/02 06:52:31;;;;;;;6.40;3.60;;;;;;;28.86;31.72;101483.25;5057979;28;20177;-69
2022/08/02 06:54:58;;;;;;;6.03;3.50;;;;;;;28.79;31.18;101487.22;5057911;28;20213;-68
2022/08/02 06:57:24;;;;;;;7.40;3.43;;;;;;;27.58;32.72;101489.94;5057666;28;20465;-69
2022/08/02 06:59:49;;;;;;;6.20;3.50;;;;;;;25.39;36.14;101492.59;5058243;28;20427;-68
2022/08/02 07:02:14;;;;;;;5.50;3.77;;;;;;;26.63;34.13;101495.31;5059157;28;20162;-68
2022/08/02 07:04:40;;;;;;;9.93;3.60;;;;;;;28.13;32.40;101488.97;5056852;28;20201;-69
2022/08/02 07:07:05;;;;;;;8.43;3.10;;;;;;;25.25;35.99;101495.78;5057794;28;20180;-68
2022/08/02 07:09:30;;;;;;;7.77;3.83;;;;;;;27.53;32.89;101482.13;5058076;28;20165;-68
2022/08/02 07:11:56;;;;;;;6.40;3.20;;;;;;;27.72;31.68;101476.72;5057742;28;20174;-68
2022/08/02 07:14:21;;;;;;;7.00;3.40;;;;;;;27.18;32.11;101490.06;5057572;28;20178;-68
2022/08/02 07:16:46;;;;;;;6.00;3.37;;;;;;;27.47;32.65;101479.78;5058342;28;20165;-68
2022/08/02 07:19:12;;;;;;;4.83;3.07;;;;;;;29.19;29.82;101468.00;5057777;28;20188;-68
2022/08/02 07:21:38;;;;;;;9.03;3.73;;;;;;;29.32;30.16;101470.88;5057638;28;20197;-68
2022/08/02 07:24:04;;;;;;;7.17;3.43;;;;;;;28.39;31.23;101475.97;5057989;28;20213;-67
2022/08/02 07:26:29;;;;;;;5.53;3.30;;;;;;;26.54;33.92;101481.41;5057580;28;20451;-68
2022/08/02 07:28:55;;;;;;;9.37;3.20;;;;;;;25.53;36.33;101481.31;5057490;28;20174;-67
2022/08/02 07:31:20;;;;;;;7.73;3.83;;;;;;;25.27;36.44;101482.38;5057815;28;20198;-67
2022/08/02 07:33:45;;;;;;;7.33;3.20;;;;;;;27.44;32.95;101466.53;5057440;28;20197;-68
2022/08/02 07:36:11;;;;;;;6.43;3.07;;;;;;;28.55;30.52;101476.88;5057504;28;20193;-67
2022/08/02 07:38:36;;;;;;;5.80;3.83;;;;;;;28.82;31.27;101475.44;5058034;28;20174;-67
2022/08/02 07:41:01;;;;;;;6.80;3.63;;;;;;;28.81;30.36;101485.34;5058121;28;20299;-70
2022/08/02 07:43:27;;;;;;;5.07;3.20;;;;;;;28.32;31.64;101478.13;5061256;28;20200;-68
2022/08/02 07:45:52;;;;;;;6.13;3.40;;;;;;;29.21;30.75;101480.41;5061482;28;20201;-66
2022/08/02 07:48:17;;;;;;;4.93;3.23;;;;;;;31.15;27.35;101464.16;5061255;28;20185;-67
2022/08/02 07:50:43;;;;;;;8.40;3.33;;;;;;;26.40;33.40;101483.88;5061405;28;20184;-67
2022/08/02 07:53:08;;;;;;;5.27;3.53;;;;;;;27.31;33.35;101470.72;5061400;28;20221;-67
2022/08/02 07:55:33;;;;;;;3.80;3.10;;;;;;;28.89;29.87;101477.72;5061138;28;20178;-67
2022/08/02 07:57:59;;;;;;;5.70;4.10;;;;;;;29.42;30.19;101482.81;5061136;28;20224;-67
2022/08/02 08:00:24;;;;;;;6.17;3.50;;;;;;;28.61;30.88;101472.13;5060953;28;20248;-67
2022/08/02 08:02:49;;;;;;;8.87;3.40;;;;;;;28.54;31.80;101472.44;5060986;28;20570;-67
2022/08/02 08:05:15;;;;;;;7.10;3.47;;;;;;;27.26;32.43;101464.72;5061121;28;20209;-68
2022/08/02 08:07:40;;;;;;;4.40;3.10;;;;;;;29.36;29.55;101450.94;5060814;28;20201;-68
2022/08/02 08:10:07;;;;;;;6.40;3.70;;;;;;;28.99;30.70;101450.34;5060943;28;20174;-67
2022/08/02 08:12:32;;;;;;;7.27;3.20;;;;;;;29.88;29.78;101450.56;5061254;28;20519;-68
2022/08/02 08:14:57;;;;;;;7.70;4.10;;;;;;;30.30;28.70;101445.31;5060721;28;20416;-68
2022/08/02 08:17:23;;;;;;;10.10;3.80;;;;;;;30.85;27.70;101440.94;5060732;28;20600;-68
2022/08/02 08:19:48;;;;;;;4.83;3.20;;;;;;;27.78;32.28;101445.19;5061306;28;20629;-67
2022/08/02 08:22:14;;;;;;;7.53;3.60;;;;;;;30.42;28.88;101432.91;5060725;28;20177;-68
2022/08/02 08:24:39;;;;;;;5.60;3.67;;;;;;;30.15;29.07;101422.94;5060402;28;20205;-68
2022/08/02 08:27:05;;;;;;;7.20;4.27;;;;;;;30.06;29.20;101421.66;5061030;28;20296;-67
2022/08/02 08:29:30;;;;;;;6.80;3.67;;;;;;;27.79;32.98;101426.34;5060528;28;20170;-68
2022/08/02 08:31:56;;;;;;;6.50;3.40;;;;;;;30.63;28.73;101413.69;5060239;28;20511;-68
2022/08/02 08:34:22;;;;;;;7.23;3.40;;;;;;;29.35;30.85;101417.84;5060627;28;20173;-67
2022/08/02 08:36:48;;;;;;;6.47;3.57;;;;;;;28.97;29.99;101420.03;5060331;28;20170;-68
2022/08/02 08:39:14;;;;;;;9.80;3.37;;;;;;;29.50;30.22;101415.22;5060212;28;20431;-69
2022/08/02 08:41:42;;;;;;;5.20;3.50;;;;;;;29.80;28.98;101412.50;5060473;28;20197;-67
2022/08/02 08:44:08;;;;;;;7.30;3.57;;;;;;;30.20;28.76;101406.50;5059863;28;20211;-67
2022/08/02 08:46:36;;;;;;;7.37;3.37;;;;;;;29.64;29.11;101406.31;5059977;28;20506;-67
2022/08/02 08:49:25;;;;;;;4.53;3.13;;;;;;;30.54;27.17;101389.09;5060335;28;20226;-66
2022/08/02 08:51:54;;;;;;;7.60;3.40;;;;;;;30.82;27.62;101389.97;5059674;28;20419;-66
2022/08/02 08:54:23;;;;;;;4.00;2.87;;;;;;;31.27;26.79;101396.97;5059600;28;20506;-70
2022/08/02 08:56:48;;;;;;;7.00;3.03;;;;;;;27.97;30.40;101408.44;5059117;28;20419;-69
2022/08/02 08:59:14;;;;;;;7.80;3.80;;;;;;;29.05;30.58;101401.66;5059062;28;20514;-69
2022/08/02 09:01:39;;;;;;;5.60;3.53;;;;;;;28.64;31.12;101410.28;5060227;28;20240;-69
2022/08/02 09:04:04;;;;;;;7.10;3.70;;;;;;;28.81;30.65;101410.19;5059619;28;20555;-69
2022/08/02 09:06:30;;;;;;;4.20;3.30;;;;;;;29.48;29.87;101401.84;5059696;28;20170;-69
2022/08/02 09:08:55;;;;;;;4.07;3.03;;;;;;;28.25;31.18;101411.50;5060109;28;20216;-69
2022/08/02 09:11:24;;;;;;;5.37;3.23;;;;;;;27.52;32.05;101409.91;5059648;28;20177;-68
2022/08/02 09:13:58;;;;;;;5.97;3.30;;;;;;;29.33;28.63;101392.91;5059320;28;20256;-69
2022/08/02 09:16:32;;;;;;;8.17;3.57;;;;;;;28.93;29.40;101397.00;5059628;28;20473;-69
2022/08/02 09:18:58;;;;;;;5.80;3.23;;;;;;;29.73;28.83;101386.97;5059532;28;20419;-70
2022/08/02 09:21:33;;;;;;;4.60;2.80;;;;;;;29.46;29.23;101384.09;5059480;28;20416;-71
2022/08/02 09:23:58;;;;;;;6.10;3.33;;;;;;;29.40;30.34;101386.22;5059170;28;20173;-70
2022/08/02 09:26:24;;;;;;;7.37;3.50;;;;;;;27.93;30.43;101389.91;5059593;28;20662;-69
2022/08/02 09:28:51;;;;;;;4.80;3.50;;;;;;;31.46;27.01;101370.50;5059250;28;20195;-69
2022/08/02 09:31:19;;;;;;;4.43;3.13;;;;;;;30.30;27.93;101369.13;5059310;28;20201;-69
2022/08/02 09:33:50;;;;;;;5.10;3.20;;;;;;;30.78;27.11;101368.75;5059397;28;20458;-68
2022/08/02 09:36:16;;;;;;;6.10;3.33;;;;;;;29.15;29.51;101376.03;5059198;28;20837;-69
2022/08/02 09:39:02;;;;;;;4.47;3.60;;;;;;;30.16;28.13;101373.56;5059010;28;20422;-69
2022/08/02 09:41:30;;;;;;;5.97;3.40;;;;;;;27.55;31.63;101394.53;5059148;28;20201;-69
2022/08/02 09:43:56;;;;;;;5.80;3.20;;;;;;;29.53;29.06;101380.09;5058920;28;20507;-69
2022/08/02 09:46:24;;;;;;;5.73;3.30;;;;;;;29.35;29.48;101393.69;5059112;28;20879;-68
2022/08/02 09:48:54;;;;;;;3.90;2.80;;;;;;;30.65;27.34;101372.25;5058835;28;20684;-70
2022/08/02 09:51:22;;;;;;;5.00;3.40;;;;;;;30.48;28.65;101378.72;5059479;28;20407;-67
2022/08/02 09:53:50;;;;;;;3.67;2.87;;;;;;;29.55;28.71;101376.38;5058497;28;20494;-69
2022/08/02 09:56:16;;;;;;;4.80;2.83;;;;;;;30.13;28.40;101362.97;5058773;28;20408;-70
2022/08/02 09:58:42;;;;;;;6.70;3.90;;;;;;;30.54;27.72;101380.16;5059115;28;20411;-70
2022/08/02 10:01:08;;;;;;;5.07;3.03;;;;;;;30.24;28.13;101376.63;5058752;28;20420;-70
2022/08/02 10:03:34;;;;;;;4.73;3.00;;;;;;;29.29;28.88;101377.06;5057214;28;20205;-68
2022/08/02 10:06:00;;;;;;;3.50;2.77;;;;;;;29.70;28.82;101373.69;5058668;28;20448;-69
2022/08/02 10:08:27;;;;;;;3.60;2.93;;;;;;;29.33;28.72;101382.16;5058640;28;20166;-69
2022/08/02 10:10:59;;;;;;;4.27;2.80;;;;;;;29.60;28.16;101375.22;5058550;28;20424;-69
2022/08/02 10:13:34;;;;;;;5.37;2.63;;;;;;;29.19;28.76;101384.78;5059474;28;20411;-69
2022/08/02 10:16:01;;;;;;;4.40;3.43;;;;;;;30.87;26.91;101374.41;5058443;28;20408;-68
2022/08/02 10:18:27;;;;;;;4.77;2.97;;;;;;;30.38;27.51;101369.50;5058554;28;20652;-68
2022/08/02 10:20:55;;;;;;;7.73;4.13;;;;;;;30.43;26.32;101363.81;5047788;28;20504;-68
2022/08/02 10:23:22;;;;;;;3.90;3.00;;;;;;;30.05;26.52;101370.66;5055484;28;20470;-68
2022/08/02 10:25:48;;;;;;;4.40;3.10;;;;;;;30.69;26.70;101372.94;5037879;28;20456;-69
2022/08/02 10:28:15;;;;;;;5.13;3.23;;;;;;;30.23;27.06;101379.44;5043804;28;20420;-70
2022/08/02 10:30:43;;;;;;;3.70;2.77;;;;;;;30.51;26.53;101383.06;5058297;28;20420;-67
2022/08/02 10:33:09;;;;;;;4.53;2.80;;;;;;;29.66;27.48;101377.53;5057985;28;20727;-66
2022/08/02 10:35:37;;;;;;;6.23;3.43;;;;;;;29.56;28.22;101371.84;5057457;28;20707;-67
2022/08/02 10:38:06;;;;;;;4.03;2.90;;;;;;;29.22;28.19;101366.66;5042014;28;20417;-69
2022/08/02 10:41:06;;;;;;;4.37;3.10;;;;;;;30.25;26.94;101361.34;5038741;28;20649;-67
2022/08/02 10:43:35;;;;;;;5.33;2.80;;;;;;;30.40;27.18;101354.13;5036917;28;20420;-68
2022/08/02 10:46:33;;;;;;;4.70;3.30;;;;;;;30.02;26.59;101360.13;5037981;28;20548;-67
2022/08/02 10:49:20;;;;;;;4.87;3.40;;;;;;;29.78;27.01;101354.41;5065546;28;20431;-69
2022/08/02 10:51:57;;;;;;;6.70;3.10;;;;;;;28.44;27.44;101363.94;5057990;28;20416;-67
2022/08/02 10:54:28;;;;;;;6.03;3.37;;;;;;;29.33;27.48;101343.69;5057005;28;20815;-67
2022/08/02 10:56:55;;;;;;;3.43;2.77;;;;;;;30.10;26.72;101335.44;5057196;28;20416;-68
2022/08/02 10:59:29;;;;;;;6.20;3.27;;;;;;;29.39;27.75;101335.28;5058032;28;20873;-69
2022/08/02 11:02:03;;;;;;;4.93;2.97;;;;;;;29.56;27.30;101340.47;5057766;28;20416;-67
2022/08/02 11:04:38;;;;;;;4.33;3.30;;;;;;;30.15;26.39;101328.81;5057593;28;20455;-67
2022/08/02 11:07:16;;;;;;;5.30;2.90;;;;;;;30.58;25.25;101317.13;5057687;28;20825;-67
2022/08/02 11:09:42;;;;;;;3.40;3.10;;;;;;;30.31;26.75;101317.03;5057752;28;20440;-67
2022/08/02 11:12:12;;;;;;;6.33;2.87;;;;;;;29.37;27.51;101327.28;5057701;28;20419;-66
2022/08/02 11:14:39;;;;;;;3.30;2.80;;;;;;;30.68;27.24;101322.75;5057504;28;20725;-66
2022/08/02 11:17:13;;;;;;;4.43;2.90;;;;;;;30.37;27.14;101325.59;5061791;28;20423;-68
2022/08/02 11:20:12;;;;;;;5.80;3.77;;;;;;;28.99;27.66;101340.31;5061579;28;20412;-69
2022/08/02 11:22:38;;;;;;;5.30;3.23;;;;;;;29.50;27.10;101321.19;5061686;28;20521;-69
2022/08/02 11:25:22;;;;;;;6.30;2.67;;;;;;;29.84;26.96;101328.03;5061379;28;20873;-68
2022/08/02 11:27:47;;;;;;;4.77;3.20;;;;;;;28.71;28.59;101324.00;5057417;28;20417;-70